Terminal Aerodrome Forecast
Issued by NWS

Home | Current Version | Previous Version | Text Only | Print | Product List | Glossary On
Versions: 1 2 3 4 5 6 7 8 9 10 11 12 13
056
FTUS42 TJSJ 262335
TAFISX
TAF
TISX 262335Z 2700/2724 07008KT P6SM SCT025
     FM271300 10013KT P6SM SCT025
     FM272230 07010KT P6SM VCSH FEW025=

USA.gov is the U.S. government's official web portal to all federal, state and local government web resources and services.